Terminal Aerodrome Forecast
Issued by NWS

Home | Current Version | Previous Version | Text Only | Print | Product List | Glossary Off
Versions: 1 2 3 4 5 6 7 8 9 10 11 12 13 14 15 16 17 18 19 20 21 22 23 24 25 26 27 28
000 FTUS41 KBOX 230541 TAFFMH TAF KFMH 230541Z 2306/2406 24019G32KT P6SM OVC060 FM231000 25012G22KT P6SM BKN070 FM231800 23009KT P6SM BKN070 FM240500 18006KT P6SM BKN200=

USA.gov is the U.S. government's official web portal to all federal, state and local government web resources and services.